Latest Weather Observations for Maria Island

IDT60901

Issued at 2:31 pm EST Thursday 25 August 2016 (issued every 10 minutes, with the page automatically refreshed every 10 minutes)

About weather observations | Map of Hobart area stations | Latest observations for Hobart area | Other Formats
Station Details ID: 092124 Name: MARIA ISLAND (POINT LESUEUR) Lat: -42.66 Lon: 148.02 Height: 28.0 m
Data from the previous 72 hours. | See also: Recent months at Maria Island
Date/Time
EST
Temp
°C
App
Temp
°C
Dew
Point
°C
Rel
Hum
%
Delta-T
°C
Wind Press
QNH
hPa
Press
MSL
hPa
Rain since
9am
mm
Dir  Spd
km/h
Gust
km/h
Spd
kts
Gust
kts
25/02:30pm 10.0 - - - - SSW 37 43 20 23 1010.9 1010.9 0.0
25/02:00pm 10.1 - - - - SSW 35 43 19 23 1010.6 1010.6 0.0
25/01:30pm 11.1 - - - - SSW 33 43 18 23 1010.4 1010.4 0.0
25/01:00pm 11.1 - - - - SSW 24 30 13 16 1010.4 1010.4 0.0
25/12:30pm 11.3 - - - - SW 22 26 12 14 1010.5 1010.5 0.0
25/12:00pm 10.9 - - - - SSW 30 33 16 18 1010.6 1010.6 0.0
25/11:30am 10.9 - - - - SSW 28 37 15 20 1010.8 1010.8 0.0
25/11:00am 10.4 - - - - SSW 28 33 15 18 1010.9 1010.9 0.0
25/10:30am 10.2 - - - - SSW 30 35 16 19 1010.6 1010.6 0.0
25/10:00am 10.0 - - - - SW 24 30 13 16 1010.6 1010.6 0.0
25/09:30am 9.5 - - - - SW 33 43 18 23 1010.4 1010.4 0.0
25/09:00am 9.2 - - - - SW 26 32 14 17 1010.4 1010.4 0.0
25/08:30am 8.7 - - - - SW 19 24 10 13 1010.2 1010.2 0.0
25/08:00am 7.3 - - - - W 9 15 5 8 1010.1 1010.1 0.0
25/07:30am 7.0 - - - - WNW 13 17 7 9 1010.0 1010.0 0.0
25/07:00am 6.4 - - - - WNW 17 20 9 11 1009.6 1009.6 0.0
25/06:30am 6.2 - - - - WNW 17 20 9 11 1009.3 1009.3 0.0
25/06:00am 6.2 - - - - WNW 19 22 10 12 1009.0 1009.0 0.0
25/05:30am 6.7 - - - - W 17 20 9 11 1008.9 1008.9 0.0
25/05:00am 6.3 - - - - WNW 19 24 10 13 1008.8 1008.8 0.0
25/04:30am 5.9 - - - - WNW 15 17 8 9 1008.9 1008.9 0.0
25/04:00am 5.8 - - - - WNW 17 19 9 10 1008.9 1008.9 0.0
25/03:30am 6.1 - - - - WNW 17 20 9 11 1008.8 1008.8 0.0
25/03:00am 6.2 - - - - WNW 15 20 8 11 1008.9 1008.9 0.0
25/02:30am 6.5 - - - - WNW 15 19 8 10 1008.8 1008.8 0.0
25/02:00am 6.8 - - - - W 17 19 9 10 1008.9 1008.9 0.0
25/01:30am 6.5 - - - - WNW 15 19 8 10 1009.1 1009.1 0.0
25/01:00am 6.6 - - - - W 19 20 10 11 1009.1 1009.1 0.0
25/12:30am 7.3 - - - - W 20 24 11 13 1009.1 1009.1 0.0
25/12:00am 7.5 - - - - W 15 19 8 10 1009.5 1009.5 0.0
 
Date/Time
EST
Temp
°C
App
Temp
°C
Dew
Point
°C
Rel
Hum
%
Delta-T
°C
Wind Press
QNH
hPa
Press
MSL
hPa
Rain since
9am
mm
Dir  Spd
km/h
Gust
km/h
Spd
kts
Gust
kts
24/11:30pm 8.0 - - - - WSW 13 19 7 10 1009.6 1009.6 0.0
24/11:00pm 8.0 - - - - WSW 20 26 11 14 1009.5 1009.5 0.0
24/10:30pm 8.0 - - - - WSW 15 19 8 10 1009.7 1009.7 0.0
24/10:00pm 7.7 - - - - WSW 7 9 4 5 1009.9 1009.9 0.0
24/09:30pm 7.8 - - - - W 13 17 7 9 1010.0 1010.0 0.0
24/09:00pm 7.4 - - - - W 11 15 6 8 1010.1 1010.1 0.0
24/08:30pm 7.5 - - - - W 7 9 4 5 1010.3 1010.3 0.0
24/08:00pm 8.3 - - - - W 9 11 5 6 1010.2 1010.2 0.0
24/07:30pm 9.1 - - - - SW 17 20 9 11 1010.1 1010.1 0.0
24/07:00pm 8.8 - - - - SW 13 15 7 8 1010.2 1010.2 0.0
24/06:30pm 9.1 - - - - SW 11 13 6 7 1010.0 1010.0 0.0
24/06:00pm 9.5 - - - - SSW 15 17 8 9 1009.8 1009.8 0.0
24/05:30pm 9.6 - - - - SSW 13 17 7 9 1009.7 1009.7 0.0
24/05:00pm 10.0 - - - - SSW 19 22 10 12 1009.5 1009.5 0.0
24/04:30pm 10.3 - - - - SSW 22 28 12 15 1009.3 1009.3 0.0
24/04:00pm 10.4 - - - - S 26 30 14 16 1009.2 1009.2 0.0
24/03:30pm 11.0 - - - - S 24 33 13 18 1009.2 1009.2 0.0
24/03:00pm 11.1 - - - - SSE 15 17 8 9 1009.4 1009.4 0.0
24/02:30pm 11.1 - - - - S 20 26 11 14 1009.5 1009.5 0.0
24/02:00pm 11.4 - - - - SSE 11 13 6 7 1009.7 1009.7 0.0
24/01:30pm 11.5 - - - - S 13 17 7 9 1010.0 1010.0 0.0
24/01:00pm 12.1 - - - - WSW 13 19 7 10 1010.3 1010.3 0.0
24/12:30pm 11.7 - - - - SW 11 17 6 9 1010.6 1010.6 0.0
24/12:00pm 12.0 - - - - WSW 15 24 8 13 1011.0 1011.0 0.0
24/11:30am 11.2 - - - - W 17 24 9 13 1011.6 1011.6 0.0
24/11:00am 10.6 - - - - WSW 13 19 7 10 1012.0 1012.0 0.0
24/10:30am 10.9 - - - - W 13 20 7 11 1012.2 1012.2 0.0
24/10:00am 9.9 - - - - WNW 15 19 8 10 1012.4 1012.4 0.0
24/09:30am 9.4 - - - - WNW 20 24 11 13 1012.7 1012.7 0.0
24/09:00am 8.7 - - - - WNW 22 28 12 15 1012.9 1012.9 0.0
24/08:30am 8.0 - - - - WNW 24 28 13 15 1013.1 1013.1 0.0
24/08:00am 7.4 - - - - WNW 19 24 10 13 1013.2 1013.2 0.0
24/07:30am 6.9 - - - - W 22 28 12 15 1013.1 1013.1 0.0
24/07:00am 6.9 - - - - W 22 26 12 14 1012.9 1012.9 0.0
24/06:30am 7.0 - - - - WNW 20 24 11 13 1012.8 1012.8 0.0
24/06:00am 7.0 - - - - WNW 22 24 12 13 1012.6 1012.6 0.0
24/05:30am 6.8 - - - - WNW 15 19 8 10 1012.7 1012.7 0.0
24/05:00am 7.1 - - - - WNW 19 22 10 12 1012.6 1012.6 0.0
24/04:30am 6.9 - - - - WNW 13 17 7 9 1012.6 1012.6 0.0
24/04:00am 6.9 - - - - WNW 17 19 9 10 1012.7 1012.7 0.0
24/03:30am 6.6 - - - - WNW 7 11 4 6 1012.8 1012.8 0.0
24/03:00am 6.6 - - - - WNW 13 19 7 10 1013.0 1013.0 0.0
24/02:30am 6.9 - - - - WNW 22 26 12 14 1013.2 1013.2 0.0
24/02:00am 6.6 - - - - WNW 15 19 8 10 1013.6 1013.6 0.0
24/01:30am 6.8 - - - - WNW 19 22 10 12 1013.8 1013.8 0.0
24/01:00am 7.0 - - - - NW 11 17 6 9 1014.0 1014.0 0.0
24/12:30am 7.3 - - - - NW 15 20 8 11 1014.1 1014.1 0.0
24/12:00am 7.2 - - - - WNW 17 20 9 11 1014.1 1014.1 0.0
 
Date/Time
EST
Temp
°C
App
Temp
°C
Dew
Point
°C
Rel
Hum
%
Delta-T
°C
Wind Press
QNH
hPa
Press
MSL
hPa
Rain since
9am
mm
Dir  Spd
km/h
Gust
km/h
Spd
kts
Gust
kts
23/11:30pm 7.3 - - - - WNW 15 20 8 11 1014.1 1014.1 0.0
23/11:00pm 7.4 - - - - NW 17 20 9 11 1014.1 1014.1 0.0
23/10:30pm 7.8 - - - - WNW 7 11 4 6 1014.2 1014.2 0.0
23/10:00pm 7.7 - - - - NW 7 9 4 5 1014.3 1014.3 0.0
23/09:30pm 7.8 - - - - WNW 15 17 8 9 1014.4 1014.4 0.0
23/09:00pm 7.6 - - - - W 9 13 5 7 1014.3 1014.3 0.0
23/08:30pm 8.2 - - - - WNW 9 11 5 6 1014.5 1014.5 0.0
23/08:00pm 8.3 - - - - NW 6 11 3 6 1014.4 1014.4 0.0
23/07:30pm 8.8 - - - - W 6 7 3 4 1014.3 1014.3 0.0
23/07:00pm 9.4 - - - - WSW 9 13 5 7 1014.1 1014.1 0.0
23/06:30pm 9.8 - - - - SW 19 22 10 12 1013.9 1013.9 0.0
23/06:00pm 10.2 - - - - SSW 20 28 11 15 1013.7 1013.7 0.0
23/05:30pm 10.3 - - - - SSW 19 20 10 11 1013.3 1013.3 0.0
23/05:00pm 10.5 - - - - SSW 24 28 13 15 1013.0 1013.0 0.0
23/04:30pm 11.1 - - - - SSW 26 30 14 16 1012.6 1012.6 0.0
23/04:00pm 11.2 - - - - SW 19 26 10 14 1012.3 1012.3 0.0
23/03:30pm 11.5 - - - - SW 7 13 4 7 1012.3 1012.3 0.0
23/03:00pm 11.4 - - - - SW 4 6 2 3 1012.5 1012.5 0.0
23/02:30pm 11.7 - - - - CALM 0 4 0 2 1012.6 1012.6 0.0
23/02:00pm 11.4 - - - - S 2 4 1 2 1012.6 1012.6 0.0
23/01:30pm 11.8 - - - - NNW 2 7 1 4 1012.6 1012.6 0.0
23/01:00pm 11.3 - - - - SSE 6 9 3 5 1012.7 1012.7 0.0
23/12:30pm 10.9 - - - - SSE 7 9 4 5 1012.9 1012.9 0.0
23/12:00pm 11.0 - - - - SE 11 13 6 7 1013.1 1013.1 0.0
23/11:30am 10.6 - - - - SSW 7 9 4 5 1013.4 1013.4 0.0
23/11:00am 10.6 - - - - NW 11 15 6 8 1013.6 1013.6 0.0
23/10:30am 10.1 - - - - WNW 11 15 6 8 1013.7 1013.7 0.0
23/10:00am 9.6 - - - - WNW 15 19 8 10 1013.9 1013.9 0.0
23/09:30am 8.8 - - - - WNW 15 19 8 10 1014.0 1014.0 0.0
23/09:00am 8.2 - - - - WNW 13 17 7 9 1014.0 1014.0 0.0
23/08:30am 8.0 - - - - WNW 15 19 8 10 1013.9 1013.9 0.0
23/08:00am 7.1 - - - - WNW 17 20 9 11 1013.8 1013.8 0.0
23/07:30am 6.5 - - - - WNW 15 19 8 10 1013.6 1013.6 0.0
23/07:00am 5.6 - - - - W 11 13 6 7 1013.4 1013.4 0.0
23/06:30am 5.9 - - - - W 9 11 5 6 1013.1 1013.1 0.0
23/06:00am 6.2 - - - - NNW 9 15 5 8 1012.9 1012.9 0.0
23/05:30am 6.0 - - - - NNW 13 20 7 11 1012.6 1012.6 0.0
23/05:00am 6.1 - - - - N 9 11 5 6 1012.5 1012.5 0.0
23/04:30am 5.8 - - - - NW 9 13 5 7 1012.6 1012.6 0.0
23/04:00am 6.4 - - - - WNW 15 19 8 10 1012.4 1012.4 0.0
23/03:30am 6.4 - - - - WNW 20 28 11 15 1012.3 1012.3 0.0
23/03:00am 6.4 - - - - WNW 24 30 13 16 1012.3 1012.3 0.0
23/02:30am 6.4 - - - - W 28 35 15 19 1012.4 1012.4 0.0
23/02:00am 6.0 - - - - WNW 24 30 13 16 1012.6 1012.6 0.0
23/01:30am 6.1 - - - - WNW 20 26 11 14 1012.8 1012.8 0.0
23/01:00am 6.4 - - - - WNW 22 24 12 13 1012.9 1012.9 0.0
23/12:30am 6.1 - - - - WNW 17 20 9 11 1012.9 1012.9 0.0
23/12:00am 6.1 - - - - WNW 13 17 7 9 1012.9 1012.9 0.0
 
Date/Time
EST
Temp
°C
App
Temp
°C
Dew
Point
°C
Rel
Hum
%
Delta-T
°C
Wind Press
QNH
hPa
Press
MSL
hPa
Rain since
9am
mm
Dir  Spd
km/h
Gust
km/h
Spd
kts
Gust
kts
22/11:30pm 6.2 - - - - WNW 13 15 7 8 1012.7 1012.7 0.0
22/11:00pm 6.8 - - - - WNW 9 15 5 8 1012.8 1012.8 0.0
22/10:30pm 7.2 - - - - NW 9 11 5 6 1012.7 1012.7 0.0
22/10:00pm 7.6 - - - - WNW 13 17 7 9 1012.6 1012.6 0.0
22/09:30pm 7.7 - - - - NW 9 15 5 8 1012.5 1012.5 0.0
22/09:00pm 8.2 - - - - WNW 11 15 6 8 1012.2 1012.2 0.0
22/08:30pm 8.0 - - - - WNW 13 17 7 9 1011.9 1011.9 0.0
22/08:00pm 8.3 - - - - WNW 15 19 8 10 1011.5 1011.5 0.0
22/07:30pm 8.4 - - - - WNW 19 20 10 11 1011.1 1011.1 0.0
22/07:00pm 9.0 - - - - WNW 20 22 11 12 1010.8 1010.8 0.0
22/06:30pm 9.4 - - - - NW 9 13 5 7 1010.6 1010.6 0.0
22/06:00pm 9.8 - - - - W 11 13 6 7 1010.3 1010.3 0.0
22/05:30pm 10.2 - - - - WNW 13 17 7 9 1010.0 1010.0 0.0
22/05:00pm 11.2 - - - - WNW 19 24 10 13 1009.7 1009.7 0.0
22/04:30pm 11.7 - - - - WNW 19 24 10 13 1009.4 1009.4 0.0
22/04:00pm 12.1 - - - - W 20 24 11 13 1009.3 1009.3 0.0
22/03:30pm 12.3 - - - - W 13 17 7 9 1009.1 1009.1 0.0
22/03:00pm 12.1 - - - - SW 7 17 4 9 1009.3 1009.3 0.0

Latest Capital City Observations: Canberra | Sydney | Melbourne | Brisbane | Adelaide | Perth | Hobart | Darwin

Other Formats:

Comma delimited format used in spreadsheet applications
http://www.bom.gov.au/fwo/IDT60901/IDT60901.95988.axf

JavaScript Object Notation format (JSON) in row-major order
http://www.bom.gov.au/fwo/IDT60901/IDT60901.95988.json